Terminal Aerodrome Forecast
Issued by NWS

Home | Current Version | Previous Version | Text Only | Print | Product List | Glossary On
Versions: 1 2 3 4 5 6 7 8 9 10 11 12 13 14 15 16 17 18 19 20 21 22
000
FTUS43 KDVN 012300
TAFBRL
TAF
KBRL 012320Z 0200/0224 02022G27KT 1SM -SN BLSN SCT011 OVC023
      TEMPO 0200/0201 1/2SM SN BLSN OVC004
     FM020200 35015G24KT 3SM -SN OVC012
     FM020400 36013G20KT 5SM BLSN BKN020
     FM020800 34011KT P6SM SCT020
     FM021200 28006KT P6SM SCT250=

USA.gov is the U.S. government's official web portal to all federal, state and local government web resources and services.